sensor_id;sensor_type;location;lat;lon;timestamp;pressure;altitude;pressure_sealevel;temperature;humidity
61478;BME280;47345;52.334;10.392;2023-03-05T00:01:08;101091.95;;;2.44;86.46
61478;BME280;47345;52.334;10.392;2023-03-05T00:03:41;101091.98;;;2.45;86.66
61478;BME280;47345;52.334;10.392;2023-03-05T00:06:13;101092.13;;;2.46;86.54
61478;BME280;47345;52.334;10.392;2023-03-05T00:08:46;101088.39;;;2.47;86.55
61478;BME280;47345;52.334;10.392;2023-03-05T00:11:20;101087.18;;;2.49;86.25
61478;BME280;47345;52.334;10.392;2023-03-05T00:13:53;101091.30;;;2.50;86.45
61478;BME280;47345;52.334;10.392;2023-03-05T00:16:27;101088.23;;;2.51;86.67
61478;BME280;47345;52.334;10.392;2023-03-05T00:19:03;101085.83;;;2.51;86.53
61478;BME280;47345;52.334;10.392;2023-03-05T00:21:37;101081.14;;;2.51;86.15
61478;BME280;47345;52.334;10.392;2023-03-05T00:24:13;101080.30;;;2.51;86.09
61478;BME280;47345;52.334;10.392;2023-03-05T00:26:48;101070.02;;;2.49;86.17
61478;BME280;47345;52.334;10.392;2023-03-05T00:29:21;101071.23;;;2.49;86.30
61478;BME280;47345;52.334;10.392;2023-03-05T00:31:53;101070.30;;;2.48;86.67
61478;BME280;47345;52.334;10.392;2023-03-05T00:34:24;101067.05;;;2.46;86.49
61478;BME280;47345;52.334;10.392;2023-03-05T00:36:57;101063.90;;;2.43;86.54
61478;BME280;47345;52.334;10.392;2023-03-05T00:39:28;101060.35;;;2.41;86.44
61478;BME280;47345;52.334;10.392;2023-03-05T00:41:59;101054.33;;;2.38;86.63
61478;BME280;47345;52.334;10.392;2023-03-05T00:44:32;101052.68;;;2.36;86.56
61478;BME280;47345;52.334;10.392;2023-03-05T00:47:05;101051.38;;;2.35;86.52
61478;BME280;47345;52.334;10.392;2023-03-05T00:49:36;101057.23;;;2.34;86.51
61478;BME280;47345;52.334;10.392;2023-03-05T00:52:07;101052.63;;;2.33;86.42
61478;BME280;47345;52.334;10.392;2023-03-05T00:54:39;101048.99;;;2.31;86.60
61478;BME280;47345;52.334;10.392;2023-03-05T00:57:10;101046.86;;;2.31;86.70
61478;BME280;47345;52.334;10.392;2023-03-05T00:59:41;101047.66;;;2.30;86.88
61478;BME280;47345;52.334;10.392;2023-03-05T01:02:12;101038.09;;;2.29;86.69
61478;BME280;47345;52.334;10.392;2023-03-05T01:04:45;101038.84;;;2.28;86.74
61478;BME280;47345;52.334;10.392;2023-03-05T01:07:17;101036.17;;;2.28;86.86
61478;BME280;47345;52.334;10.392;2023-03-05T01:09:50;101030.55;;;2.29;86.62
61478;BME280;47345;52.334;10.392;2023-03-05T01:12:22;101024.94;;;2.29;86.47
61478;BME280;47345;52.334;10.392;2023-03-05T01:14:54;101018.46;;;2.29;86.55
61478;BME280;47345;52.334;10.392;2023-03-05T01:17:26;101012.29;;;2.29;86.58
61478;BME280;47345;52.334;10.392;2023-03-05T01:19:59;101005.30;;;2.29;86.75
61478;BME280;47345;52.334;10.392;2023-03-05T01:22:31;100997.48;;;2.32;86.47
61478;BME280;47345;52.334;10.392;2023-03-05T01:25:03;100993.41;;;2.35;86.58
61478;BME280;47345;52.334;10.392;2023-03-05T01:27:34;100992.63;;;2.38;86.45
61478;BME280;47345;52.334;10.392;2023-03-05T01:30:07;100987.36;;;2.40;86.38
61478;BME280;47345;52.334;10.392;2023-03-05T01:32:38;100988.39;;;2.42;86.25
61478;BME280;47345;52.334;10.392;2023-03-05T01:35:14;100983.65;;;2.43;86.10
61478;BME280;47345;52.334;10.392;2023-03-05T01:37:45;100985.06;;;2.43;86.24
61478;BME280;47345;52.334;10.392;2023-03-05T01:40:18;100984.66;;;2.42;85.98
61478;BME280;47345;52.334;10.392;2023-03-05T01:42:58;100982.30;;;2.40;86.14
61478;BME280;47345;52.334;10.392;2023-03-05T01:45:31;100970.55;;;2.37;85.58
61478;BME280;47345;52.334;10.392;2023-03-05T01:48:01;100969.27;;;2.35;85.91
61478;BME280;47345;52.334;10.392;2023-03-05T01:50:33;100976.10;;;2.33;85.80
61478;BME280;47345;52.334;10.392;2023-03-05T01:53:06;100969.89;;;2.30;85.87
61478;BME280;47345;52.334;10.392;2023-03-05T01:55:36;100970.74;;;2.29;85.97
61478;BME280;47345;52.334;10.392;2023-03-05T01:58:10;100965.70;;;2.27;86.01
61478;BME280;47345;52.334;10.392;2023-03-05T02:00:44;100965.59;;;2.27;85.85
61478;BME280;47345;52.334;10.392;2023-03-05T02:03:16;100960.88;;;2.27;86.06
61478;BME280;47345;52.334;10.392;2023-03-05T02:05:47;100958.68;;;2.27;86.24
61478;BME280;47345;52.334;10.392;2023-03-05T02:08:19;100955.34;;;2.28;86.36
61478;BME280;47345;52.334;10.392;2023-03-05T02:10:52;100957.55;;;2.30;86.22
61478;BME280;47345;52.334;10.392;2023-03-05T02:13:25;100955.68;;;2.30;86.05
61478;BME280;47345;52.334;10.392;2023-03-05T02:15:58;100952.89;;;2.31;86.10
61478;BME280;47345;52.334;10.392;2023-03-05T02:18:29;100952.35;;;2.31;86.31
61478;BME280;47345;52.334;10.392;2023-03-05T02:21:03;100946.39;;;2.32;86.46
61478;BME280;47345;52.334;10.392;2023-03-05T02:23:35;100941.88;;;2.33;86.63
61478;BME280;47345;52.334;10.392;2023-03-05T02:26:08;100939.70;;;2.35;86.51
61478;BME280;47345;52.334;10.392;2023-03-05T02:28:41;100935.58;;;2.37;86.30
61478;BME280;47345;52.334;10.392;2023-03-05T02:31:16;100932.83;;;2.38;86.46
61478;BME280;47345;52.334;10.392;2023-03-05T02:33:49;100934.59;;;2.38;86.51
61478;BME280;47345;52.334;10.392;2023-03-05T02:36:20;100929.60;;;2.38;86.73
61478;BME280;47345;52.334;10.392;2023-03-05T02:38:51;100927.80;;;2.38;86.77
61478;BME280;47345;52.334;10.392;2023-03-05T02:41:25;100928.01;;;2.38;86.83
61478;BME280;47345;52.334;10.392;2023-03-05T02:43:56;100920.64;;;2.37;87.12
61478;BME280;47345;52.334;10.392;2023-03-05T02:46:27;100919.67;;;2.36;87.87
61478;BME280;47345;52.334;10.392;2023-03-05T02:48:58;100917.80;;;2.33;87.91
61478;BME280;47345;52.334;10.392;2023-03-05T02:51:28;100915.90;;;2.29;88.12
61478;BME280;47345;52.334;10.392;2023-03-05T02:53:59;100913.10;;;2.22;88.49
61478;BME280;47345;52.334;10.392;2023-03-05T02:56:30;100910.35;;;2.17;88.92
61478;BME280;47345;52.334;10.392;2023-03-05T02:59:01;100902.96;;;2.13;89.13
61478;BME280;47345;52.334;10.392;2023-03-05T03:01:31;100904.02;;;2.12;89.62
61478;BME280;47345;52.334;10.392;2023-03-05T03:04:02;100900.02;;;2.10;89.94
61478;BME280;47345;52.334;10.392;2023-03-05T03:06:33;100899.19;;;2.11;90.46
61478;BME280;47345;52.334;10.392;2023-03-05T03:09:03;100897.80;;;2.11;90.45
61478;BME280;47345;52.334;10.392;2023-03-05T03:11:34;100891.29;;;2.11;90.77
61478;BME280;47345;52.334;10.392;2023-03-05T03:14:04;100890.28;;;2.12;90.98
61478;BME280;47345;52.334;10.392;2023-03-05T03:16:35;100890.94;;;2.13;91.31
61478;BME280;47345;52.334;10.392;2023-03-05T03:19:05;100880.82;;;2.14;91.49
61478;BME280;47345;52.334;10.392;2023-03-05T03:21:35;100876.95;;;2.14;91.27
61478;BME280;47345;52.334;10.392;2023-03-05T03:24:06;100873.05;;;2.16;91.54
61478;BME280;47345;52.334;10.392;2023-03-05T03:26:37;100875.21;;;2.16;91.50
61478;BME280;47345;52.334;10.392;2023-03-05T03:29:07;100874.93;;;2.15;91.57
61478;BME280;47345;52.334;10.392;2023-03-05T03:31:37;100876.94;;;2.14;91.96
61478;BME280;47345;52.334;10.392;2023-03-05T03:34:09;100870.45;;;2.15;91.74
61478;BME280;47345;52.334;10.392;2023-03-05T03:36:39;100867.50;;;2.14;91.64
61478;BME280;47345;52.334;10.392;2023-03-05T03:39:10;100859.50;;;2.12;91.73
61478;BME280;47345;52.334;10.392;2023-03-05T03:41:44;100857.65;;;2.11;91.78
61478;BME280;47345;52.334;10.392;2023-03-05T03:44:15;100854.25;;;2.09;91.72
61478;BME280;47345;52.334;10.392;2023-03-05T03:46:47;100852.84;;;2.09;92.14
61478;BME280;47345;52.334;10.392;2023-03-05T03:49:20;100851.96;;;2.09;91.91
61478;BME280;47345;52.334;10.392;2023-03-05T03:51:52;100848.08;;;2.08;92.22
61478;BME280;47345;52.334;10.392;2023-03-05T03:54:23;100842.80;;;2.09;92.06
61478;BME280;47345;52.334;10.392;2023-03-05T03:56:54;100840.08;;;2.09;92.13
61478;BME280;47345;52.334;10.392;2023-03-05T03:59:25;100837.12;;;2.10;92.31
61478;BME280;47345;52.334;10.392;2023-03-05T04:01:55;100831.13;;;2.10;92.51
61478;BME280;47345;52.334;10.392;2023-03-05T04:04:25;100831.27;;;2.11;92.30
61478;BME280;47345;52.334;10.392;2023-03-05T04:06:57;100828.38;;;2.11;92.14
61478;BME280;47345;52.334;10.392;2023-03-05T04:09:28;100824.67;;;2.10;92.12
61478;BME280;47345;52.334;10.392;2023-03-05T04:11:58;100824.14;;;2.10;92.24
61478;BME280;47345;52.334;10.392;2023-03-05T04:14:29;100821.75;;;2.10;91.93
61478;BME280;47345;52.334;10.392;2023-03-05T04:17:00;100820.10;;;2.11;92.11
61478;BME280;47345;52.334;10.392;2023-03-05T04:19:31;100818.09;;;2.11;92.42
61478;BME280;47345;52.334;10.392;2023-03-05T04:22:01;100815.45;;;2.12;92.42
61478;BME280;47345;52.334;10.392;2023-03-05T04:24:33;100814.22;;;2.14;92.62
61478;BME280;47345;52.334;10.392;2023-03-05T04:27:03;100812.55;;;2.14;92.50
61478;BME280;47345;52.334;10.392;2023-03-05T04:29:35;100811.75;;;2.15;92.51
61478;BME280;47345;52.334;10.392;2023-03-05T04:32:06;100807.61;;;2.17;92.68
61478;BME280;47345;52.334;10.392;2023-03-05T04:34:38;100804.20;;;2.17;92.20
61478;BME280;47345;52.334;10.392;2023-03-05T04:37:08;100806.56;;;2.16;92.50
61478;BME280;47345;52.334;10.392;2023-03-05T04:39:39;100808.69;;;2.17;92.46
61478;BME280;47345;52.334;10.392;2023-03-05T04:42:10;100804.17;;;2.17;92.19
61478;BME280;47345;52.334;10.392;2023-03-05T04:44:41;100808.35;;;2.16;92.41
61478;BME280;47345;52.334;10.392;2023-03-05T04:47:12;100809.27;;;2.17;92.47
61478;BME280;47345;52.334;10.392;2023-03-05T04:49:43;100801.40;;;2.16;92.56
61478;BME280;47345;52.334;10.392;2023-03-05T04:52:14;100797.67;;;2.15;92.65
61478;BME280;47345;52.334;10.392;2023-03-05T04:54:47;100787.61;;;2.15;92.60
61478;BME280;47345;52.334;10.392;2023-03-05T04:57:17;100776.15;;;2.15;92.78
61478;BME280;47345;52.334;10.392;2023-03-05T04:59:48;100775.78;;;2.13;92.77
61478;BME280;47345;52.334;10.392;2023-03-05T05:02:18;100777.41;;;2.09;92.63
61478;BME280;47345;52.334;10.392;2023-03-05T05:04:52;100781.07;;;2.07;92.61
61478;BME280;47345;52.334;10.392;2023-03-05T05:07:23;100777.15;;;2.04;92.61
61478;BME280;47345;52.334;10.392;2023-03-05T05:09:54;100778.88;;;2.02;92.56
61478;BME280;47345;52.334;10.392;2023-03-05T05:12:25;100774.39;;;1.99;92.70
61478;BME280;47345;52.334;10.392;2023-03-05T05:14:57;100773.66;;;1.98;92.67
61478;BME280;47345;52.334;10.392;2023-03-05T05:17:28;100769.92;;;1.96;92.43
61478;BME280;47345;52.334;10.392;2023-03-05T05:20:02;100764.55;;;1.94;92.53
61478;BME280;47345;52.334;10.392;2023-03-05T05:22:35;100765.10;;;1.92;92.35
61478;BME280;47345;52.334;10.392;2023-03-05T05:25:06;100769.00;;;1.90;92.41
61478;BME280;47345;52.334;10.392;2023-03-05T05:27:37;100779.71;;;1.91;92.30
61478;BME280;47345;52.334;10.392;2023-03-05T05:30:11;100776.83;;;1.91;92.67
61478;BME280;47345;52.334;10.392;2023-03-05T05:32:41;100775.79;;;1.93;92.62
61478;BME280;47345;52.334;10.392;2023-03-05T05:35:13;100770.16;;;1.93;92.45
61478;BME280;47345;52.334;10.392;2023-03-05T05:37:43;100771.36;;;1.94;92.46
61478;BME280;47345;52.334;10.392;2023-03-05T05:40:14;100770.25;;;1.94;92.31
61478;BME280;47345;52.334;10.392;2023-03-05T05:42:44;100768.54;;;1.95;92.36
61478;BME280;47345;52.334;10.392;2023-03-05T05:45:15;100767.71;;;1.96;92.46
61478;BME280;47345;52.334;10.392;2023-03-05T05:47:45;100768.21;;;1.96;92.42
61478;BME280;47345;52.334;10.392;2023-03-05T05:50:16;100772.64;;;1.99;92.58
61478;BME280;47345;52.334;10.392;2023-03-05T05:52:46;100768.16;;;2.00;92.34
61478;BME280;47345;52.334;10.392;2023-03-05T05:55:17;100764.25;;;2.00;92.22
61478;BME280;47345;52.334;10.392;2023-03-05T05:57:48;100768.48;;;2.01;92.01
61478;BME280;47345;52.334;10.392;2023-03-05T06:00:20;100765.30;;;2.00;92.11
61478;BME280;47345;52.334;10.392;2023-03-05T06:02:50;100765.10;;;2.01;91.92
61478;BME280;47345;52.334;10.392;2023-03-05T06:05:21;100756.56;;;2.00;91.97
61478;BME280;47345;52.334;10.392;2023-03-05T06:07:52;100761.41;;;2.00;91.69
61478;BME280;47345;52.334;10.392;2023-03-05T06:10:22;100755.95;;;2.01;91.95
61478;BME280;47345;52.334;10.392;2023-03-05T06:12:53;100763.06;;;2.02;91.75
61478;BME280;47345;52.334;10.392;2023-03-05T06:15:24;100756.14;;;2.02;91.85
61478;BME280;47345;52.334;10.392;2023-03-05T06:17:55;100759.48;;;2.03;91.64
61478;BME280;47345;52.334;10.392;2023-03-05T06:20:26;100759.04;;;2.04;91.54
61478;BME280;47345;52.334;10.392;2023-03-05T06:22:57;100758.77;;;2.05;91.75
61478;BME280;47345;52.334;10.392;2023-03-05T06:25:27;100757.55;;;2.04;91.62
61478;BME280;47345;52.334;10.392;2023-03-05T06:27:57;100755.65;;;2.05;91.59
61478;BME280;47345;52.334;10.392;2023-03-05T06:30:29;100755.58;;;2.08;91.75
61478;BME280;47345;52.334;10.392;2023-03-05T06:32:59;100750.58;;;2.11;91.75
61478;BME280;47345;52.334;10.392;2023-03-05T06:35:30;100751.39;;;2.14;91.75
61478;BME280;47345;52.334;10.392;2023-03-05T06:38:00;100749.35;;;2.17;91.80
61478;BME280;47345;52.334;10.392;2023-03-05T06:40:32;100749.58;;;2.19;91.73
61478;BME280;47345;52.334;10.392;2023-03-05T06:43:02;100748.60;;;2.22;91.81
61478;BME280;47345;52.334;10.392;2023-03-05T06:45:34;100744.84;;;2.24;91.71
61478;BME280;47345;52.334;10.392;2023-03-05T06:48:05;100748.44;;;2.26;91.69
61478;BME280;47345;52.334;10.392;2023-03-05T06:50:36;100742.39;;;2.23;91.46
61478;BME280;47345;52.334;10.392;2023-03-05T06:53:07;100741.59;;;2.26;91.68
61478;BME280;47345;52.334;10.392;2023-03-05T06:55:38;100742.95;;;2.27;91.64
61478;BME280;47345;52.334;10.392;2023-03-05T06:58:08;100742.05;;;2.29;91.57
61478;BME280;47345;52.334;10.392;2023-03-05T07:00:39;100744.23;;;2.30;91.56
61478;BME280;47345;52.334;10.392;2023-03-05T07:03:10;100740.95;;;2.32;91.49
61478;BME280;47345;52.334;10.392;2023-03-05T07:05:41;100741.44;;;2.34;91.41
61478;BME280;47345;52.334;10.392;2023-03-05T07:08:13;100741.77;;;2.37;91.36
61478;BME280;47345;52.334;10.392;2023-03-05T07:10:44;100743.24;;;2.40;91.28
61478;BME280;47345;52.334;10.392;2023-03-05T07:13:15;100742.23;;;2.43;91.63
61478;BME280;47345;52.334;10.392;2023-03-05T07:15:45;100741.89;;;2.45;91.85
61478;BME280;47345;52.334;10.392;2023-03-05T07:18:16;100741.20;;;2.46;91.65
61478;BME280;47345;52.334;10.392;2023-03-05T07:20:47;100740.41;;;2.47;91.52
61478;BME280;47345;52.334;10.392;2023-03-05T07:23:17;100738.23;;;2.47;91.66
61478;BME280;47345;52.334;10.392;2023-03-05T07:25:48;100737.11;;;2.47;91.51
61478;BME280;47345;52.334;10.392;2023-03-05T07:28:18;100729.49;;;2.48;91.57
61478;BME280;47345;52.334;10.392;2023-03-05T07:30:57;100726.27;;;2.50;91.68
61478;BME280;47345;52.334;10.392;2023-03-05T07:33:28;100728.73;;;2.52;91.74
61478;BME280;47345;52.334;10.392;2023-03-05T07:35:58;100725.65;;;2.56;91.81
61478;BME280;47345;52.334;10.392;2023-03-05T07:38:29;100724.00;;;2.60;91.66
61478;BME280;47345;52.334;10.392;2023-03-05T07:41:04;100724.36;;;2.63;91.66
61478;BME280;47345;52.334;10.392;2023-03-05T07:43:35;100727.90;;;2.68;91.58
61478;BME280;47345;52.334;10.392;2023-03-05T07:46:07;100724.55;;;2.72;91.38
61478;BME280;47345;52.334;10.392;2023-03-05T07:48:38;100726.52;;;2.77;91.56
61478;BME280;47345;52.334;10.392;2023-03-05T07:51:11;100720.86;;;2.82;91.52
61478;BME280;47345;52.334;10.392;2023-03-05T07:53:44;100720.79;;;2.86;91.16
61478;BME280;47345;52.334;10.392;2023-03-05T07:56:16;100716.80;;;2.90;91.19
61478;BME280;47345;52.334;10.392;2023-03-05T07:58:50;100710.27;;;2.94;90.88
61478;BME280;47345;52.334;10.392;2023-03-05T08:01:21;100710.58;;;2.98;90.64
61478;BME280;47345;52.334;10.392;2023-03-05T08:03:52;100707.18;;;3.02;90.44
61478;BME280;47345;52.334;10.392;2023-03-05T08:06:22;100707.64;;;3.04;90.40
61478;BME280;47345;52.334;10.392;2023-03-05T08:08:53;100711.01;;;3.08;90.27
61478;BME280;47345;52.334;10.392;2023-03-05T08:11:24;100706.79;;;3.13;89.91
61478;BME280;47345;52.334;10.392;2023-03-05T08:13:55;100704.90;;;3.15;89.78
61478;BME280;47345;52.334;10.392;2023-03-05T08:16:27;100703.67;;;3.18;89.45
61478;BME280;47345;52.334;10.392;2023-03-05T08:18:58;100704.75;;;3.20;89.20
61478;BME280;47345;52.334;10.392;2023-03-05T08:21:31;100705.09;;;3.18;89.47
61478;BME280;47345;52.334;10.392;2023-03-05T08:24:04;100708.54;;;3.18;89.51
61478;BME280;47345;52.334;10.392;2023-03-05T08:26:37;100702.92;;;3.17;90.10
61478;BME280;47345;52.334;10.392;2023-03-05T08:29:10;100704.16;;;3.17;89.99
61478;BME280;47345;52.334;10.392;2023-03-05T08:31:40;100703.46;;;3.17;90.37
61478;BME280;47345;52.334;10.392;2023-03-05T08:34:14;100704.14;;;3.17;90.31
61478;BME280;47345;52.334;10.392;2023-03-05T08:36:45;100702.45;;;3.18;90.14
61478;BME280;47345;52.334;10.392;2023-03-05T08:39:16;100704.71;;;3.20;90.43
61478;BME280;47345;52.334;10.392;2023-03-05T08:41:47;100704.20;;;3.23;90.31
61478;BME280;47345;52.334;10.392;2023-03-05T08:44:18;100703.57;;;3.24;90.15
61478;BME280;47345;52.334;10.392;2023-03-05T08:46:49;100701.79;;;3.26;90.16
61478;BME280;47345;52.334;10.392;2023-03-05T08:49:19;100702.42;;;3.27;90.53
61478;BME280;47345;52.334;10.392;2023-03-05T08:51:50;100705.31;;;3.29;90.39
61478;BME280;47345;52.334;10.392;2023-03-05T08:54:20;100701.66;;;3.30;90.37
61478;BME280;47345;52.334;10.392;2023-03-05T08:56:51;100703.62;;;3.33;89.82
61478;BME280;47345;52.334;10.392;2023-03-05T08:59:21;100695.34;;;3.34;89.87
61478;BME280;47345;52.334;10.392;2023-03-05T09:01:51;100693.60;;;3.37;89.65
61478;BME280;47345;52.334;10.392;2023-03-05T09:04:22;100693.02;;;3.41;89.47
61478;BME280;47345;52.334;10.392;2023-03-05T09:06:52;100696.21;;;3.45;89.29
61478;BME280;47345;52.334;10.392;2023-03-05T09:09:23;100688.69;;;3.50;89.06
61478;BME280;47345;52.334;10.392;2023-03-05T09:11:54;100686.15;;;3.55;88.98
61478;BME280;47345;52.334;10.392;2023-03-05T09:14:26;100688.16;;;3.60;88.67
61478;BME280;47345;52.334;10.392;2023-03-05T09:16:57;100681.27;;;3.62;87.89
61478;BME280;47345;52.334;10.392;2023-03-05T09:19:28;100678.45;;;3.65;87.53
61478;BME280;47345;52.334;10.392;2023-03-05T09:21:58;100680.41;;;3.65;87.55
61478;BME280;47345;52.334;10.392;2023-03-05T09:24:29;100679.27;;;3.62;87.07
61478;BME280;47345;52.334;10.392;2023-03-05T09:27:00;100674.96;;;3.55;87.52
61478;BME280;47345;52.334;10.392;2023-03-05T09:29:30;100673.43;;;3.54;89.18
61478;BME280;47345;52.334;10.392;2023-03-05T09:32:01;100668.32;;;3.53;89.34
61478;BME280;47345;52.334;10.392;2023-03-05T09:34:32;100664.84;;;3.53;89.92
61478;BME280;47345;52.334;10.392;2023-03-05T09:37:03;100668.00;;;3.56;89.77
61478;BME280;47345;52.334;10.392;2023-03-05T09:39:34;100664.55;;;3.57;89.14
61478;BME280;47345;52.334;10.392;2023-03-05T09:45:18;100667.30;;;3.63;88.35
61478;BME280;47345;52.334;10.392;2023-03-05T09:47:56;100664.08;;;3.66;88.44
61478;BME280;47345;52.334;10.392;2023-03-05T09:50:39;100662.02;;;3.72;88.19
61478;BME280;47345;52.334;10.392;2023-03-05T09:53:20;100664.70;;;3.77;87.71
61478;BME280;47345;52.334;10.392;2023-03-05T09:55:54;100661.44;;;3.80;86.46
61478;BME280;47345;52.334;10.392;2023-03-05T09:58:32;100663.65;;;3.85;86.43
61478;BME280;47345;52.334;10.392;2023-03-05T10:01:06;100656.80;;;3.90;86.09
61478;BME280;47345;52.334;10.392;2023-03-05T10:03:48;100654.03;;;3.93;85.16
61478;BME280;47345;52.334;10.392;2023-03-05T10:06:23;100656.88;;;3.96;84.34
61478;BME280;47345;52.334;10.392;2023-03-05T10:08:57;100650.65;;;3.94;83.84
61478;BME280;47345;52.334;10.392;2023-03-05T10:11:48;100660.42;;;3.95;82.91
61478;BME280;47345;52.334;10.392;2023-03-05T10:14:21;100662.39;;;3.92;82.83
61478;BME280;47345;52.334;10.392;2023-03-05T10:17:08;100661.27;;;3.87;80.46
61478;BME280;47345;52.334;10.392;2023-03-05T10:20:12;100657.70;;;3.85;81.74
61478;BME280;47345;52.334;10.392;2023-03-05T10:23:00;100657.90;;;3.85;81.20
61478;BME280;47345;52.334;10.392;2023-03-05T10:25:49;100653.48;;;3.81;81.26
61478;BME280;47345;52.334;10.392;2023-03-05T10:28:24;100653.32;;;3.80;80.53
61478;BME280;47345;52.334;10.392;2023-03-05T10:31:13;100660.05;;;3.80;80.09
61478;BME280;47345;52.334;10.392;2023-03-05T10:33:58;100656.09;;;3.80;80.61
61478;BME280;47345;52.334;10.392;2023-03-05T10:36:46;100653.88;;;3.77;79.36
61478;BME280;47345;52.334;10.392;2023-03-05T10:39:50;100649.48;;;3.71;79.17
61478;BME280;47345;52.334;10.392;2023-03-05T10:42:26;100648.27;;;3.66;79.65
61478;BME280;47345;52.334;10.392;2023-03-05T10:45:00;100644.16;;;3.65;80.38
61478;BME280;47345;52.334;10.392;2023-03-05T10:47:46;100641.59;;;3.67;80.58
61478;BME280;47345;52.334;10.392;2023-03-05T10:50:20;100643.23;;;3.71;79.49
61478;BME280;47345;52.334;10.392;2023-03-05T10:53:03;100636.33;;;3.77;78.95
61478;BME280;47345;52.334;10.392;2023-03-05T10:55:36;100630.33;;;3.83;79.01
61478;BME280;47345;52.334;10.392;2023-03-05T10:58:12;100634.09;;;3.87;78.84
61478;BME280;47345;52.334;10.392;2023-03-05T11:00:58;100632.77;;;3.87;78.98
61478;BME280;47345;52.334;10.392;2023-03-05T11:03:47;100628.27;;;3.87;78.88
61478;BME280;47345;52.334;10.392;2023-03-05T11:06:31;100627.91;;;3.91;79.36
61478;BME280;47345;52.334;10.392;2023-03-05T11:09:20;100626.16;;;3.97;78.61
61478;BME280;47345;52.334;10.392;2023-03-05T11:12:12;100617.09;;;4.04;77.94
61478;BME280;47345;52.334;10.392;2023-03-05T11:14:45;100611.83;;;4.09;77.64
61478;BME280;47345;52.334;10.392;2023-03-05T11:17:29;100609.84;;;4.14;77.69
61478;BME280;47345;52.334;10.392;2023-03-05T11:20:22;100608.29;;;4.17;77.89
61478;BME280;47345;52.334;10.392;2023-03-05T11:23:08;100605.95;;;4.23;78.53
61478;BME280;47345;52.334;10.392;2023-03-05T11:25:55;100601.48;;;4.29;78.65
61478;BME280;47345;52.334;10.392;2023-03-05T11:28:30;100596.94;;;4.36;78.90
61478;BME280;47345;52.334;10.392;2023-03-05T11:31:09;100592.16;;;4.44;78.82
61478;BME280;47345;52.334;10.392;2023-03-05T11:33:57;100591.08;;;4.50;78.45
61478;BME280;47345;52.334;10.392;2023-03-05T11:36:30;100588.02;;;4.54;78.30
61478;BME280;47345;52.334;10.392;2023-03-05T11:39:19;100587.79;;;4.52;79.03
61478;BME280;47345;52.334;10.392;2023-03-05T11:41:52;100583.17;;;4.47;78.99
61478;BME280;47345;52.334;10.392;2023-03-05T11:44:27;100585.77;;;4.43;79.49
61478;BME280;47345;52.334;10.392;2023-03-05T11:47:01;100584.01;;;4.42;80.13
61478;BME280;47345;52.334;10.392;2023-03-05T11:49:35;100577.19;;;4.45;80.13
61478;BME280;47345;52.334;10.392;2023-03-05T11:52:17;100571.90;;;4.49;79.98
61478;BME280;47345;52.334;10.392;2023-03-05T11:54:55;100570.55;;;4.53;79.84
61478;BME280;47345;52.334;10.392;2023-03-05T11:57:29;100563.26;;;4.57;79.53
61478;BME280;47345;52.334;10.392;2023-03-05T12:00:05;100564.03;;;4.62;79.29
61478;BME280;47345;52.334;10.392;2023-03-05T12:02:39;100557.09;;;4.65;79.13
61478;BME280;47345;52.334;10.392;2023-03-05T12:05:14;100553.13;;;4.70;78.63
61478;BME280;47345;52.334;10.392;2023-03-05T12:07:48;100549.55;;;4.75;78.18
61478;BME280;47345;52.334;10.392;2023-03-05T12:10:22;100544.80;;;4.75;76.70
61478;BME280;47345;52.334;10.392;2023-03-05T12:12:57;100546.33;;;4.76;76.59
61478;BME280;47345;52.334;10.392;2023-03-05T12:15:39;100540.35;;;4.76;75.81
61478;BME280;47345;52.334;10.392;2023-03-05T12:18:19;100535.01;;;4.76;75.77
61478;BME280;47345;52.334;10.392;2023-03-05T12:21:01;100530.35;;;4.77;75.53
61478;BME280;47345;52.334;10.392;2023-03-05T12:23:48;100524.75;;;4.78;75.52
61478;BME280;47345;52.334;10.392;2023-03-05T12:26:19;100519.02;;;4.81;75.08
61478;BME280;47345;52.334;10.392;2023-03-05T12:29:27;100511.16;;;4.83;75.33
61478;BME280;47345;52.334;10.392;2023-03-05T12:31:56;100510.19;;;4.85;75.16
61478;BME280;47345;52.334;10.392;2023-03-05T12:34:46;100506.49;;;4.86;74.70
61478;BME280;47345;52.334;10.392;2023-03-05T12:40:52;100500.70;;;4.88;75.02
61478;BME280;47345;52.334;10.392;2023-03-05T12:43:30;100495.38;;;4.89;75.55
61478;BME280;47345;52.334;10.392;2023-03-05T12:46:30;100492.55;;;4.91;74.89
61478;BME280;47345;52.334;10.392;2023-03-05T12:49:28;100488.77;;;4.94;74.72
61478;BME280;47345;52.334;10.392;2023-03-05T12:52:03;100483.27;;;5.00;75.29
61478;BME280;47345;52.334;10.392;2023-03-05T12:54:37;100471.38;;;5.06;74.97
61478;BME280;47345;52.334;10.392;2023-03-05T12:57:16;100463.39;;;5.11;74.99
61478;BME280;47345;52.334;10.392;2023-03-05T12:59:50;100465.02;;;5.17;74.99
61478;BME280;47345;52.334;10.392;2023-03-05T13:02:27;100462.42;;;5.26;76.15
61478;BME280;47345;52.334;10.392;2023-03-05T13:05:04;100460.86;;;5.35;74.99
61478;BME280;47345;52.334;10.392;2023-03-05T13:07:36;100458.70;;;5.39;73.04
61478;BME280;47345;52.334;10.392;2023-03-05T13:10:22;100458.61;;;5.41;72.25
61478;BME280;47345;52.334;10.392;2023-03-05T13:12:55;100455.56;;;5.41;70.79
61478;BME280;47345;52.334;10.392;2023-03-05T13:15:26;100447.56;;;5.40;71.38
61478;BME280;47345;52.334;10.392;2023-03-05T13:17:59;100446.52;;;5.42;71.55
61478;BME280;47345;52.334;10.392;2023-03-05T13:20:34;100449.80;;;5.44;71.20
61478;BME280;47345;52.334;10.392;2023-03-05T13:23:15;100445.23;;;5.44;71.29
61478;BME280;47345;52.334;10.392;2023-03-05T13:25:56;100440.35;;;5.44;70.67
61478;BME280;47345;52.334;10.392;2023-03-05T13:28:28;100435.70;;;5.44;70.09
61478;BME280;47345;52.334;10.392;2023-03-05T13:31:00;100437.14;;;5.45;71.35